Time;durP1;ratioP1;P1;durP2;ratioP2;P2;SDS_P1;SDS_P2;PMS_P1;PMS_P2;Temp;Humidity;BMP_temperature;BMP_pressure;BME280_temperature;BME280_humidity;BME280_pressure;Samples;Min_cycle;Max_cycle;Signal;HPM_P1;HPM_P2
2022/05/01 00:07:15;;;;;;;18.58;9.75;;;6.40;99.90;;;;;;21185676;28;20043;-77
2022/05/01 00:17:16;;;;;;;28.30;13.30;;;6.10;99.90;;;;;;21180931;28;20102;-78
2022/05/01 00:27:17;;;;;;;34.80;14.67;;;6.50;99.90;;;;;;21184024;28;20114;-78
2022/05/01 00:37:19;;;;;;;26.70;13.73;;;7.10;99.90;;;;;;21180178;28;20425;-77
2022/05/01 00:47:20;;;;;;;38.67;16.98;;;7.20;99.90;;;;;;21177356;28;20032;-78
2022/05/01 00:57:21;;;;;;;41.80;19.27;;;7.30;99.90;;;;;;21214123;28;20077;-79
2022/05/01 01:07:24;;;;;;;24.07;12.73;;;7.50;99.90;;;;;;21226776;28;20028;-78
2022/05/01 01:17:25;;;;;;;19.83;11.95;;;7.60;99.90;;;;;;21218762;28;20036;-79
2022/05/01 01:27:26;;;;;;;20.53;12.20;;;7.60;99.90;;;;;;21211563;28;20084;-79
2022/05/01 01:37:28;;;;;;;19.13;10.47;;;7.30;99.90;;;;;;21212754;28;20039;-78
2022/05/01 01:47:28;;;;;;;19.42;10.10;;;6.80;99.90;;;;;;21211791;28;20035;-79
2022/05/01 01:57:29;;;;;;;20.00;11.00;;;6.40;99.90;;;;;;21212386;28;20072;-77
2022/05/01 02:07:31;;;;;;;26.27;13.63;;;5.70;99.90;;;;;;21198338;28;20024;-78
2022/05/01 02:17:33;;;;;;;25.65;13.18;;;5.60;99.90;;;;;;21191182;28;20032;-79
2022/05/01 02:27:34;;;;;;;26.38;13.32;;;5.40;99.90;;;;;;21189730;28;20481;-79
2022/05/01 02:37:35;;;;;;;;;;;5.70;99.90;;;;;;21189394;28;20023;-78
2022/05/01 02:47:36;;;;;;;30.63;16.10;;;6.10;99.90;;;;;;21158650;28;20432;-77
2022/05/01 02:57:38;;;;;;;34.20;17.13;;;6.30;99.90;;;;;;21158997;28;20575;-78
2022/05/01 03:07:39;;;;;;;29.15;15.18;;;6.50;99.90;;;;;;21158273;28;20040;-78
2022/05/01 03:27:59;;;;;;;35.08;17.65;;;6.40;99.90;;;;;;21143034;28;20040;-77
2022/05/01 03:38:00;;;;;;;35.42;16.30;;;6.20;99.90;;;;;;21143734;28;20484;-78
2022/05/01 03:48:01;;;;;;;;;;;6.40;99.90;;;;;;21159046;28;20101;-78
2022/05/01 03:58:02;;;;;;;34.63;15.47;;;6.60;99.90;;;;;;21145691;28;19907;-76
2022/05/01 04:08:03;;;;;;;;;;;6.80;99.90;;;;;;21128243;28;20338;-78
2022/05/01 04:18:05;;;;;;;32.42;15.10;;;7.00;99.90;;;;;;21162477;28;19911;-77
2022/05/01 04:28:08;;;;;;;29.92;14.23;;;7.10;99.90;;;;;;21165866;28;20059;-78
2022/05/01 04:38:12;;;;;;;34.10;15.75;;;7.10;99.90;;;;;;21173512;28;20062;-76
2022/05/01 04:48:14;;;;;;;31.88;14.40;;;7.20;99.90;;;;;;21170021;28;20027;-78
2022/05/01 04:58:15;;;;;;;24.88;13.30;;;7.20;99.90;;;;;;21170237;28;20080;-77
2022/05/01 05:18:36;;;;;;;18.57;10.50;;;6.60;99.90;;;;;;21049189;22;1182063;-72
2022/05/01 05:28:37;;;;;;;21.13;11.40;;;6.60;99.90;;;;;;21072260;28;20377;-72
2022/05/01 05:38:38;;;;;;;18.13;10.03;;;6.70;99.90;;;;;;21080549;28;20070;-72
2022/05/01 05:48:39;;;;;;;20.67;10.63;;;7.10;99.90;;;;;;21087025;28;20070;-72
2022/05/01 05:58:40;;;;;;;17.80;9.53;;;7.20;99.90;;;;;;21086670;28;20031;-72
2022/05/01 06:08:40;;;;;;;33.10;15.67;;;7.40;99.90;;;;;;21085330;28;20024;-72
2022/05/01 06:18:41;;;;;;;20.27;10.33;;;7.80;99.90;;;;;;21084529;28;20036;-71
2022/05/01 06:28:42;;;;;;;27.57;13.73;;;7.90;99.90;;;;;;21084023;28;20032;-72
2022/05/01 06:38:44;;;;;;;22.97;11.70;;;8.00;99.90;;;;;;21083125;28;20489;-72
2022/05/01 06:48:45;;;;;;;32.08;14.73;;;8.10;99.90;;;;;;21080036;28;20032;-72
2022/05/01 06:58:45;;;;;;;31.20;15.43;;;8.40;99.90;;;;;;21081165;28;20436;-72
2022/05/01 07:08:46;;;;;;;35.17;15.83;;;8.70;99.90;;;;;;21080964;28;20546;-72
2022/05/01 07:18:47;;;;;;;31.23;14.07;;;8.40;99.90;;;;;;21080112;28;20066;-72
2022/05/01 07:28:48;;;;;;;30.63;14.20;;;8.80;99.90;;;;;;21079224;28;20028;-72
2022/05/01 07:38:49;;;;;;;28.47;14.10;;;8.90;99.90;;;;;;21077145;28;20444;-72
2022/05/01 07:48:50;;;;;;;24.83;13.77;;;9.20;99.90;;;;;;21076438;28;20452;-72
2022/05/01 07:58:51;;;;;;;23.00;12.97;;;9.50;99.90;;;;;;21063764;28;20027;-72
2022/05/01 08:08:52;;;;;;;23.63;12.30;;;9.80;99.90;;;;;;21043045;28;20521;-72
2022/05/01 08:29:12;;;;;;;24.80;14.45;;;9.70;99.90;;;;;;21053872;28;20035;-72
2022/05/01 08:39:12;;;;;;;26.87;14.03;;;9.70;99.90;;;;;;21054588;28;20031;-72
2022/05/01 08:49:17;;;;;;;23.73;13.53;;;9.70;99.90;;;;;;21054460;28;20028;-71
2022/05/01 08:59:19;;;;;;;20.02;12.85;;;9.50;99.90;;;;;;21053133;28;20059;-72
2022/05/01 09:09:22;;;;;;;25.17;13.75;;;9.50;99.90;;;;;;21055170;28;20067;-72
2022/05/01 09:19:30;;;;;;;21.60;12.00;;;9.60;99.90;;;;;;21070171;28;20043;-72
2022/05/01 09:29:34;;;;;;;22.00;13.07;;;9.80;99.90;;;;;;21068714;28;20035;-72
2022/05/01 09:39:38;;;;;;;24.92;13.65;;;9.60;99.90;;;;;;21067231;28;20039;-72
2022/05/01 09:49:48;;;;;;;25.73;12.88;;;9.00;99.90;;;;;;21067483;28;20024;-72
2022/05/01 09:59:49;;;;;;;23.58;12.13;;;10.00;99.90;;;;;;21066521;28;20036;-72
2022/05/01 10:09:52;;;;;;;21.23;12.13;;;10.00;99.90;;;;;;21066524;28;20028;-72
2022/05/01 10:19:53;;;;;;;22.13;11.27;;;10.40;99.90;;;;;;21062894;28;20036;-71
2022/05/01 10:40:14;;;;;;;15.10;8.85;;;12.30;99.90;;;;;;21063578;28;20054;-72
2022/05/01 10:50:20;;;;;;;12.57;8.30;;;13.30;99.90;;;;;;21062403;28;20032;-72
2022/05/01 11:00:21;;;;;;;14.20;8.45;;;13.70;99.90;;;;;;21070433;28;20028;-72
2022/05/01 11:10:26;;;;;;;14.77;8.10;;;15.20;99.90;;;;;;21081745;22;20571;-74
2022/05/01 11:20:29;;;;;;;10.43;6.22;;;15.90;99.90;;;;;;21146450;28;20642;-74
2022/05/01 11:30:31;;;;;;;12.68;7.50;;;17.20;99.90;;;;;;21085781;28;20521;-74
2022/05/01 11:40:33;;;;;;;11.38;7.82;;;16.70;99.90;;;;;;21059293;28;20116;-74
2022/05/01 11:50:34;;;;;;;8.30;6.00;;;16.40;99.90;;;;;;21075456;28;20034;-74
2022/05/01 12:10:45;;;;;;;8.05;5.55;;;17.40;99.90;;;;;;21048809;28;20066;-74
2022/05/01 12:20:46;;;;;;;13.98;4.70;;;17.30;99.90;;;;;;21054834;28;20058;-75
2022/05/01 12:30:50;;;;;;;9.18;4.35;;;18.40;99.90;;;;;;21055231;28;20036;-74
2022/05/01 12:51:12;;;;;;;8.48;4.18;;;18.50;99.90;;;;;;21036141;28;20078;-74
2022/05/01 13:01:27;;;;;;;8.43;4.38;;;19.30;99.90;;;;;;21033343;28;20056;-74
2022/05/01 13:11:31;;;;;;;5.13;3.75;;;19.50;99.90;;;;;;21030099;28;20033;-74
2022/05/01 13:21:34;;;;;;;6.28;4.35;;;19.00;99.90;;;;;;20991909;28;20051;-73
2022/05/01 13:31:42;;;;;;;6.25;4.18;;;18.90;99.90;;;;;;21011687;28;20464;-74
2022/05/01 13:52:04;;;;;;;8.02;4.15;;;18.60;99.90;;;;;;20988825;28;20094;-74
2022/05/01 14:02:06;;;;;;;9.77;4.18;;;19.20;99.90;;;;;;20999686;28;20371;-73
2022/05/01 14:12:09;;;;;;;7.40;4.00;;;19.20;99.90;;;;;;21001952;28;20250;-74
2022/05/01 14:22:12;;;;;;;11.02;4.50;;;19.30;99.90;;;;;;21001223;28;20029;-74
2022/05/01 14:32:26;;;;;;;25.77;10.45;;;19.00;99.90;;;;;;21000427;28;20028;-75
2022/05/01 14:42:32;;;;;;;9.15;5.22;;;19.10;99.90;;;;;;20999628;28;20637;-74
2022/05/01 14:52:32;;;;;;;8.20;4.63;;;19.30;99.90;;;;;;20997962;28;20033;-75
2022/05/01 15:12:56;;;;;;;6.33;3.70;;;19.80;99.90;;;;;;21053512;28;20089;-75
2022/05/01 15:23:24;;;;;;;6.35;3.33;;;19.00;99.90;;;;;;20989374;28;20028;-75
2022/05/01 15:43:32;;;;;;;5.97;3.13;;;16.40;99.90;;;;;;21019638;28;20052;-74
2022/05/01 15:53:37;;;;;;;4.15;2.30;;;16.30;99.90;;;;;;21008496;28;20028;-76
2022/05/01 16:03:38;;;;;;;3.72;3.17;;;17.10;99.90;;;;;;21001906;28;20057;-75
2022/05/01 16:14:09;;;;;;;5.10;2.87;;;16.40;99.90;;;;;;21011809;28;20040;-74
2022/05/01 16:24:23;;;;;;;4.05;2.65;;;16.40;99.90;;;;;;21004707;28;20080;-75
2022/05/01 16:34:35;;;;;;;5.68;2.70;;;16.10;99.90;;;;;;21004020;28;20113;-74
2022/05/01 16:44:36;;;;;;;4.85;2.85;;;15.30;99.90;;;;;;20988942;28;20032;-74
2022/05/01 16:54:39;;;;;;;7.87;3.47;;;15.40;99.90;;;;;;20985355;28;20035;-75
2022/05/01 17:04:46;;;;;;;7.70;3.00;;;15.10;99.90;;;;;;21018311;28;20028;-74
2022/05/01 17:15:09;;;;;;;4.63;3.17;;;14.60;99.90;;;;;;21124659;22;20092;-78
2022/05/01 17:25:11;;;;;;;3.75;2.88;;;14.70;99.90;;;;;;21168599;28;20046;-78
2022/05/01 17:35:13;;;;;;;5.50;3.20;;;14.70;99.90;;;;;;21176701;28;20028;-78
2022/05/01 17:45:18;;;;;;;7.53;3.45;;;14.50;99.90;;;;;;21179403;28;20076;-78
2022/05/01 17:55:21;;;;;;;5.70;3.72;;;14.30;99.90;;;;;;21177505;28;20035;-77
2022/05/01 18:16:27;;;;;;;5.15;3.80;;;13.70;99.90;;;;;;21175868;28;20039;-77
2022/05/01 18:26:37;;;;;;;7.38;3.63;;;13.40;99.90;;;;;;21186167;28;20069;-77
2022/05/01 18:36:44;;;;;;;5.97;3.70;;;13.50;99.90;;;;;;21177639;28;20058;-77
2022/05/01 18:46:46;;;;;;;5.82;3.83;;;13.40;99.90;;;;;;21184075;28;20023;-75
2022/05/01 18:56:50;;;;;;;7.78;4.00;;;13.10;99.90;;;;;;21206255;28;20019;-77
2022/05/01 19:07:30;;;;;;;6.70;4.90;;;13.00;99.90;;;;;;21119921;28;20043;-77
2022/05/01 19:17:54;;;;;;;8.13;4.32;;;13.00;99.90;;;;;;21078090;28;20043;-76
2022/05/01 19:28:07;;;;;;;6.45;4.60;;;12.90;99.90;;;;;;21082273;28;20071;-76
2022/05/01 19:38:42;;;;;;;5.68;4.22;;;12.60;99.90;;;;;;21082782;28;20032;-77
2022/05/01 19:59:24;;;;;;;12.32;4.53;;;12.20;99.90;;;;;;21167069;27;20066;-76
2022/05/01 20:09:27;;;;;;;20.07;5.50;;;12.10;99.90;;;;;;21157163;27;20062;-77
2022/05/01 20:19:52;;;;;;;7.05;4.55;;;11.90;99.90;;;;;;21114449;28;20036;-77
2022/05/01 20:30:00;;;;;;;8.63;5.10;;;11.60;99.90;;;;;;21140374;28;20049;-77
2022/05/01 20:40:09;;;;;;;7.28;5.45;;;11.50;99.90;;;;;;21130979;27;20023;-76
2022/05/01 20:50:13;;;;;;;8.65;4.60;;;11.40;99.90;;;;;;21098899;28;20035;-76
2022/05/01 21:00:14;;;;;;;7.03;5.03;;;11.20;99.90;;;;;;21114087;28;20051;-77
2022/05/01 21:10:15;;;;;;;8.57;5.63;;;10.90;99.90;;;;;;21114443;28;20432;-75
2022/05/01 21:20:16;;;;;;;8.30;4.90;;;10.50;99.90;;;;;;21006765;28;20067;-77
2022/05/01 21:40:36;;;;;;;7.63;4.78;;;10.20;99.90;;;;;;21008103;28;20040;-77
2022/05/01 21:50:37;;;;;;;6.53;4.33;;;10.20;99.90;;;;;;21004259;28;20506;-77
2022/05/01 22:00:38;;;;;;;8.03;4.43;;;10.20;99.90;;;;;;21005407;28;20035;-77
2022/05/01 22:10:39;;;;;;;11.98;5.07;;;10.20;99.90;;;;;;21006692;28;20032;-77
2022/05/01 22:20:40;;;;;;;6.43;4.50;;;10.20;99.90;;;;;;21067477;28;20040;-77
2022/05/01 22:30:41;;;;;;;7.60;4.35;;;10.10;99.90;;;;;;21069562;28;20032;-77
2022/05/01 22:40:43;;;;;;;6.57;4.13;;;10.00;99.90;;;;;;21084087;28;20039;-77
2022/05/01 22:50:44;;;;;;;;;;;9.80;99.90;;;;;;21084630;28;20438;-77
2022/05/01 23:00:45;;;;;;;6.60;4.63;;;9.70;99.90;;;;;;21083166;28;19908;-77
2022/05/01 23:10:46;;;;;;;9.60;4.30;;;9.50;99.90;;;;;;21106140;28;20059;-79
2022/05/01 23:20:52;;;;;;;10.33;5.30;;;9.20;99.90;;;;;;21207044;27;20035;-79
2022/05/01 23:30:53;;;;;;;6.78;4.32;;;9.20;99.90;;;;;;21243289;27;20035;-79
2022/05/01 23:40:57;;;;;;;8.30;4.33;;;8.90;99.90;;;;;;21221882;27;20026;-79
2022/05/01 23:50:58;;;;;;;12.27;6.05;;;8.60;99.90;;;;;;21202802;27;20035;-80
